sensor_id;sensor_type;location;lat;lon;timestamp;P1;durP1;ratioP1;P2;durP2;ratioP2
56039;SDS011;43937;41.366;2.072;2023-10-08T00:01:48;42.10;;;29.20;;
56039;SDS011;43937;41.366;2.072;2023-10-08T00:04:16;39.97;;;28.40;;
56039;SDS011;43937;41.366;2.072;2023-10-08T00:06:44;37.85;;;26.95;;
56039;SDS011;43937;41.366;2.072;2023-10-08T00:09:10;50.97;;;29.77;;
56039;SDS011;43937;41.366;2.072;2023-10-08T00:11:36;43.42;;;29.10;;
56039;SDS011;43937;41.366;2.072;2023-10-08T00:14:03;49.50;;;29.05;;
56039;SDS011;43937;41.366;2.072;2023-10-08T00:16:33;35.13;;;26.95;;
56039;SDS011;43937;41.366;2.072;2023-10-08T00:18:59;37.50;;;26.80;;
56039;SDS011;43937;41.366;2.072;2023-10-08T00:21:32;37.38;;;25.63;;
56039;SDS011;43937;41.366;2.072;2023-10-08T00:25:08;34.60;;;25.77;;
56039;SDS011;43937;41.366;2.072;2023-10-08T00:27:37;35.15;;;25.85;;
56039;SDS011;43937;41.366;2.072;2023-10-08T00:30:04;40.95;;;23.83;;
56039;SDS011;43937;41.366;2.072;2023-10-08T00:32:38;31.75;;;23.85;;
56039;SDS011;43937;41.366;2.072;2023-10-08T00:35:04;33.58;;;23.20;;
56039;SDS011;43937;41.366;2.072;2023-10-08T00:37:30;28.08;;;22.38;;
56039;SDS011;43937;41.366;2.072;2023-10-08T00:39:56;29.30;;;21.98;;
56039;SDS011;43937;41.366;2.072;2023-10-08T00:42:23;28.55;;;21.77;;
56039;SDS011;43937;41.366;2.072;2023-10-08T00:44:50;30.15;;;22.95;;
56039;SDS011;43937;41.366;2.072;2023-10-08T00:47:19;27.73;;;21.60;;
56039;SDS011;43937;41.366;2.072;2023-10-08T00:49:50;32.35;;;22.15;;
56039;SDS011;43937;41.366;2.072;2023-10-08T00:52:42;29.33;;;20.55;;
56039;SDS011;43937;41.366;2.072;2023-10-08T00:55:22;31.08;;;21.20;;
56039;SDS011;43937;41.366;2.072;2023-10-08T00:57:55;29.63;;;20.42;;
56039;SDS011;43937;41.366;2.072;2023-10-08T01:00:23;32.47;;;19.08;;
56039;SDS011;43937;41.366;2.072;2023-10-08T01:03:02;27.75;;;21.02;;
56039;SDS011;43937;41.366;2.072;2023-10-08T01:05:39;29.80;;;20.92;;
56039;SDS011;43937;41.366;2.072;2023-10-08T01:08:11;33.10;;;20.60;;
56039;SDS011;43937;41.366;2.072;2023-10-08T01:10:43;30.35;;;21.77;;
56039;SDS011;43937;41.366;2.072;2023-10-08T01:13:09;27.73;;;20.38;;
56039;SDS011;43937;41.366;2.072;2023-10-08T01:15:46;31.88;;;20.05;;
56039;SDS011;43937;41.366;2.072;2023-10-08T01:18:14;35.08;;;21.60;;
56039;SDS011;43937;41.366;2.072;2023-10-08T01:20:41;33.15;;;21.73;;
56039;SDS011;43937;41.366;2.072;2023-10-08T01:23:13;34.08;;;21.33;;
56039;SDS011;43937;41.366;2.072;2023-10-08T01:25:39;30.80;;;21.55;;
56039;SDS011;43937;41.366;2.072;2023-10-08T01:28:07;29.67;;;20.25;;
56039;SDS011;43937;41.366;2.072;2023-10-08T01:30:52;37.17;;;19.92;;
56039;SDS011;43937;41.366;2.072;2023-10-08T01:33:25;28.70;;;19.10;;
56039;SDS011;43937;41.366;2.072;2023-10-08T01:38:43;27.10;;;18.70;;
56039;SDS011;43937;41.366;2.072;2023-10-08T01:41:13;25.80;;;19.30;;
56039;SDS011;43937;41.366;2.072;2023-10-08T01:43:45;25.25;;;17.55;;
56039;SDS011;43937;41.366;2.072;2023-10-08T01:46:11;28.67;;;18.23;;
56039;SDS011;43937;41.366;2.072;2023-10-08T01:48:37;20.92;;;16.17;;
56039;SDS011;43937;41.366;2.072;2023-10-08T01:51:04;21.67;;;17.17;;
56039;SDS011;43937;41.366;2.072;2023-10-08T01:53:36;24.73;;;18.70;;
56039;SDS011;43937;41.366;2.072;2023-10-08T01:56:03;27.08;;;17.77;;
56039;SDS011;43937;41.366;2.072;2023-10-08T01:58:29;24.95;;;18.35;;
56039;SDS011;43937;41.366;2.072;2023-10-08T02:00:55;31.63;;;17.88;;
56039;SDS011;43937;41.366;2.072;2023-10-08T02:03:25;28.08;;;17.75;;
56039;SDS011;43937;41.366;2.072;2023-10-08T02:05:52;33.30;;;17.50;;
56039;SDS011;43937;41.366;2.072;2023-10-08T02:08:24;22.58;;;16.13;;
56039;SDS011;43937;41.366;2.072;2023-10-08T02:10:51;42.25;;;17.75;;
56039;SDS011;43937;41.366;2.072;2023-10-08T02:13:17;32.65;;;18.33;;
56039;SDS011;43937;41.366;2.072;2023-10-08T02:15:44;22.80;;;18.10;;
56039;SDS011;43937;41.366;2.072;2023-10-08T02:18:12;23.27;;;17.20;;
56039;SDS011;43937;41.366;2.072;2023-10-08T02:20:38;27.90;;;18.35;;
56039;SDS011;43937;41.366;2.072;2023-10-08T02:23:05;31.50;;;18.13;;
56039;SDS011;43937;41.366;2.072;2023-10-08T02:25:31;30.52;;;18.40;;
56039;SDS011;43937;41.366;2.072;2023-10-08T02:27:56;30.80;;;19.67;;
56039;SDS011;43937;41.366;2.072;2023-10-08T02:30:22;30.63;;;19.25;;
56039;SDS011;43937;41.366;2.072;2023-10-08T02:32:48;29.90;;;19.48;;
56039;SDS011;43937;41.366;2.072;2023-10-08T02:35:14;25.47;;;17.73;;
56039;SDS011;43937;41.366;2.072;2023-10-08T02:37:41;28.02;;;17.70;;
56039;SDS011;43937;41.366;2.072;2023-10-08T02:40:10;20.33;;;16.57;;
56039;SDS011;43937;41.366;2.072;2023-10-08T02:42:52;31.50;;;18.42;;
56039;SDS011;43937;41.366;2.072;2023-10-08T02:45:26;32.03;;;18.05;;
56039;SDS011;43937;41.366;2.072;2023-10-08T02:47:53;35.30;;;17.48;;
56039;SDS011;43937;41.366;2.072;2023-10-08T02:50:19;27.92;;;17.50;;
56039;SDS011;43937;41.366;2.072;2023-10-08T02:53:32;29.02;;;17.83;;
56039;SDS011;43937;41.366;2.072;2023-10-08T02:55:58;25.80;;;16.98;;
56039;SDS011;43937;41.366;2.072;2023-10-08T02:58:23;23.00;;;16.93;;
56039;SDS011;43937;41.366;2.072;2023-10-08T03:00:50;26.58;;;17.35;;
56039;SDS011;43937;41.366;2.072;2023-10-08T03:03:18;32.63;;;18.10;;
56039;SDS011;43937;41.366;2.072;2023-10-08T03:05:46;25.05;;;17.25;;
56039;SDS011;43937;41.366;2.072;2023-10-08T03:08:14;25.83;;;17.05;;
56039;SDS011;43937;41.366;2.072;2023-10-08T03:10:46;29.00;;;17.57;;
56039;SDS011;43937;41.366;2.072;2023-10-08T03:13:13;27.75;;;16.83;;
56039;SDS011;43937;41.366;2.072;2023-10-08T03:15:42;25.05;;;16.27;;
56039;SDS011;43937;41.366;2.072;2023-10-08T03:18:31;24.05;;;16.48;;
56039;SDS011;43937;41.366;2.072;2023-10-08T03:21:15;24.65;;;17.30;;
56039;SDS011;43937;41.366;2.072;2023-10-08T03:23:48;25.00;;;17.45;;
56039;SDS011;43937;41.366;2.072;2023-10-08T03:26:15;30.05;;;17.23;;
56039;SDS011;43937;41.366;2.072;2023-10-08T03:29:11;29.33;;;16.73;;
56039;SDS011;43937;41.366;2.072;2023-10-08T03:31:43;30.17;;;17.13;;
56039;SDS011;43937;41.366;2.072;2023-10-08T03:34:12;25.42;;;16.95;;
56039;SDS011;43937;41.366;2.072;2023-10-08T03:36:39;29.60;;;17.42;;
56039;SDS011;43937;41.366;2.072;2023-10-08T03:39:11;30.25;;;16.88;;
56039;SDS011;43937;41.366;2.072;2023-10-08T03:43:11;21.60;;;15.95;;
56039;SDS011;43937;41.366;2.072;2023-10-08T03:45:58;24.27;;;16.15;;
56039;SDS011;43937;41.366;2.072;2023-10-08T03:48:33;24.77;;;17.45;;
56039;SDS011;43937;41.366;2.072;2023-10-08T03:51:02;28.17;;;17.92;;
56039;SDS011;43937;41.366;2.072;2023-10-08T03:53:37;29.40;;;17.08;;
56039;SDS011;43937;41.366;2.072;2023-10-08T03:56:17;28.98;;;16.67;;
56039;SDS011;43937;41.366;2.072;2023-10-08T03:58:44;24.73;;;16.88;;
56039;SDS011;43937;41.366;2.072;2023-10-08T04:01:12;24.90;;;16.57;;
56039;SDS011;43937;41.366;2.072;2023-10-08T04:03:44;28.70;;;17.07;;
56039;SDS011;43937;41.366;2.072;2023-10-08T04:06:16;23.27;;;16.13;;
56039;SDS011;43937;41.366;2.072;2023-10-08T04:08:45;27.73;;;16.88;;
56039;SDS011;43937;41.366;2.072;2023-10-08T04:11:23;24.55;;;16.23;;
56039;SDS011;43937;41.366;2.072;2023-10-08T04:14:01;23.70;;;16.27;;
56039;SDS011;43937;41.366;2.072;2023-10-08T04:16:28;27.05;;;15.98;;
56039;SDS011;43937;41.366;2.072;2023-10-08T04:18:54;24.02;;;16.83;;
56039;SDS011;43937;41.366;2.072;2023-10-08T04:21:28;29.23;;;17.05;;
56039;SDS011;43937;41.366;2.072;2023-10-08T04:23:54;30.00;;;16.67;;
56039;SDS011;43937;41.366;2.072;2023-10-08T04:26:30;26.23;;;15.93;;
56039;SDS011;43937;41.366;2.072;2023-10-08T04:28:57;26.08;;;17.33;;
56039;SDS011;43937;41.366;2.072;2023-10-08T04:31:26;28.90;;;17.52;;
56039;SDS011;43937;41.366;2.072;2023-10-08T04:34:01;21.83;;;15.30;;
56039;SDS011;43937;41.366;2.072;2023-10-08T04:36:32;26.35;;;16.75;;
56039;SDS011;43937;41.366;2.072;2023-10-08T04:38:57;27.17;;;17.25;;
56039;SDS011;43937;41.366;2.072;2023-10-08T04:43:07;23.70;;;16.58;;
56039;SDS011;43937;41.366;2.072;2023-10-08T04:45:35;23.83;;;17.13;;
56039;SDS011;43937;41.366;2.072;2023-10-08T04:48:03;21.77;;;16.85;;
56039;SDS011;43937;41.366;2.072;2023-10-08T04:50:34;20.95;;;17.20;;
56039;SDS011;43937;41.366;2.072;2023-10-08T04:53:02;22.75;;;17.23;;
56039;SDS011;43937;41.366;2.072;2023-10-08T04:55:33;22.33;;;17.00;;
56039;SDS011;43937;41.366;2.072;2023-10-08T04:58:00;28.65;;;17.38;;
56039;SDS011;43937;41.366;2.072;2023-10-08T05:00:29;29.35;;;18.80;;
56039;SDS011;43937;41.366;2.072;2023-10-08T05:03:18;35.05;;;17.23;;
56039;SDS011;43937;41.366;2.072;2023-10-08T05:05:45;24.80;;;16.65;;
56039;SDS011;43937;41.366;2.072;2023-10-08T05:08:32;23.17;;;17.23;;
56039;SDS011;43937;41.366;2.072;2023-10-08T05:11:23;26.83;;;17.52;;
56039;SDS011;43937;41.366;2.072;2023-10-08T05:14:12;24.25;;;17.63;;
56039;SDS011;43937;41.366;2.072;2023-10-08T05:16:54;23.05;;;17.55;;
56039;SDS011;43937;41.366;2.072;2023-10-08T05:21:07;28.40;;;18.27;;
56039;SDS011;43937;41.366;2.072;2023-10-08T05:23:50;35.47;;;19.25;;
56039;SDS011;43937;41.366;2.072;2023-10-08T05:29:07;26.30;;;18.88;;
56039;SDS011;43937;41.366;2.072;2023-10-08T05:31:52;25.10;;;17.95;;
56039;SDS011;43937;41.366;2.072;2023-10-08T05:34:37;29.52;;;17.38;;
56039;SDS011;43937;41.366;2.072;2023-10-08T05:37:15;27.08;;;17.45;;
56039;SDS011;43937;41.366;2.072;2023-10-08T05:39:57;29.05;;;18.73;;
56039;SDS011;43937;41.366;2.072;2023-10-08T05:42:37;24.70;;;18.45;;
56039;SDS011;43937;41.366;2.072;2023-10-08T05:45:11;24.48;;;16.83;;
56039;SDS011;43937;41.366;2.072;2023-10-08T05:47:39;31.55;;;18.23;;
56039;SDS011;43937;41.366;2.072;2023-10-08T05:50:16;29.20;;;18.77;;
56039;SDS011;43937;41.366;2.072;2023-10-08T05:52:42;28.08;;;18.67;;
56039;SDS011;43937;41.366;2.072;2023-10-08T05:55:23;32.22;;;19.30;;
56039;SDS011;43937;41.366;2.072;2023-10-08T05:57:59;30.02;;;20.27;;
56039;SDS011;43937;41.366;2.072;2023-10-08T06:00:39;31.38;;;18.77;;
56039;SDS011;43937;41.366;2.072;2023-10-08T06:03:27;32.15;;;19.65;;
56039;SDS011;43937;41.366;2.072;2023-10-08T06:06:21;30.77;;;19.98;;
56039;SDS011;43937;41.366;2.072;2023-10-08T06:08:47;36.55;;;21.55;;
56039;SDS011;43937;41.366;2.072;2023-10-08T06:11:16;30.83;;;20.38;;
56039;SDS011;43937;41.366;2.072;2023-10-08T06:14:04;32.38;;;22.00;;
56039;SDS011;43937;41.366;2.072;2023-10-08T06:16:42;32.28;;;21.20;;
56039;SDS011;43937;41.366;2.072;2023-10-08T06:19:27;35.33;;;22.85;;
56039;SDS011;43937;41.366;2.072;2023-10-08T06:21:52;35.10;;;23.33;;
56039;SDS011;43937;41.366;2.072;2023-10-08T06:24:18;37.90;;;23.27;;
56039;SDS011;43937;41.366;2.072;2023-10-08T06:26:45;37.85;;;23.38;;
56039;SDS011;43937;41.366;2.072;2023-10-08T06:29:13;32.85;;;22.75;;
56039;SDS011;43937;41.366;2.072;2023-10-08T06:31:58;33.97;;;23.60;;
56039;SDS011;43937;41.366;2.072;2023-10-08T06:34:30;34.55;;;22.42;;
56039;SDS011;43937;41.366;2.072;2023-10-08T06:36:58;38.70;;;23.38;;
56039;SDS011;43937;41.366;2.072;2023-10-08T06:39:25;34.38;;;22.48;;
56039;SDS011;43937;41.366;2.072;2023-10-08T06:42:12;40.50;;;23.05;;
56039;SDS011;43937;41.366;2.072;2023-10-08T06:44:40;30.52;;;22.67;;
56039;SDS011;43937;41.366;2.072;2023-10-08T06:47:08;29.88;;;20.58;;
56039;SDS011;43937;41.366;2.072;2023-10-08T06:49:34;34.40;;;21.90;;
56039;SDS011;43937;41.366;2.072;2023-10-08T06:52:01;37.33;;;22.05;;
56039;SDS011;43937;41.366;2.072;2023-10-08T06:56:24;34.17;;;21.02;;
56039;SDS011;43937;41.366;2.072;2023-10-08T06:58:49;30.13;;;20.05;;
56039;SDS011;43937;41.366;2.072;2023-10-08T07:01:18;26.25;;;19.88;;
56039;SDS011;43937;41.366;2.072;2023-10-08T07:03:49;29.23;;;20.35;;
56039;SDS011;43937;41.366;2.072;2023-10-08T07:06:16;29.65;;;20.85;;
56039;SDS011;43937;41.366;2.072;2023-10-08T07:08:50;32.22;;;20.45;;
56039;SDS011;43937;41.366;2.072;2023-10-08T07:11:20;32.15;;;19.73;;
56039;SDS011;43937;41.366;2.072;2023-10-08T07:13:47;26.88;;;18.98;;
56039;SDS011;43937;41.366;2.072;2023-10-08T07:16:13;30.13;;;19.38;;
56039;SDS011;43937;41.366;2.072;2023-10-08T07:18:42;28.65;;;19.13;;
56039;SDS011;43937;41.366;2.072;2023-10-08T07:21:16;26.92;;;18.88;;
56039;SDS011;43937;41.366;2.072;2023-10-08T07:23:42;29.73;;;17.48;;
56039;SDS011;43937;41.366;2.072;2023-10-08T07:29:01;21.95;;;17.02;;
56039;SDS011;43937;41.366;2.072;2023-10-08T07:31:32;24.83;;;15.80;;
56039;SDS011;43937;41.366;2.072;2023-10-08T07:33:59;21.38;;;16.02;;
56039;SDS011;43937;41.366;2.072;2023-10-08T07:36:40;25.23;;;16.97;;
56039;SDS011;43937;41.366;2.072;2023-10-08T07:39:07;23.92;;;15.88;;
56039;SDS011;43937;41.366;2.072;2023-10-08T07:41:45;22.98;;;14.88;;
56039;SDS011;43937;41.366;2.072;2023-10-08T07:44:12;25.50;;;16.30;;
56039;SDS011;43937;41.366;2.072;2023-10-08T07:48:50;21.48;;;14.18;;
56039;SDS011;43937;41.366;2.072;2023-10-08T07:51:16;19.35;;;14.65;;
56039;SDS011;43937;41.366;2.072;2023-10-08T07:53:49;22.83;;;14.65;;
56039;SDS011;43937;41.366;2.072;2023-10-08T07:56:19;22.15;;;15.05;;
56039;SDS011;43937;41.366;2.072;2023-10-08T07:58:45;18.15;;;13.57;;
56039;SDS011;43937;41.366;2.072;2023-10-08T08:01:10;16.63;;;13.20;;
56039;SDS011;43937;41.366;2.072;2023-10-08T08:03:39;21.20;;;14.73;;
56039;SDS011;43937;41.366;2.072;2023-10-08T08:06:10;19.67;;;14.90;;
56039;SDS011;43937;41.366;2.072;2023-10-08T08:08:36;21.88;;;15.40;;
56039;SDS011;43937;41.366;2.072;2023-10-08T08:11:07;18.65;;;13.45;;
56039;SDS011;43937;41.366;2.072;2023-10-08T08:13:43;21.10;;;15.15;;
56039;SDS011;43937;41.366;2.072;2023-10-08T08:16:13;23.20;;;14.68;;
56039;SDS011;43937;41.366;2.072;2023-10-08T08:18:51;20.08;;;13.70;;
56039;SDS011;43937;41.366;2.072;2023-10-08T08:21:22;20.92;;;14.07;;
56039;SDS011;43937;41.366;2.072;2023-10-08T08:23:48;17.90;;;13.60;;
56039;SDS011;43937;41.366;2.072;2023-10-08T08:26:23;20.85;;;14.82;;
56039;SDS011;43937;41.366;2.072;2023-10-08T08:28:54;26.55;;;15.70;;
56039;SDS011;43937;41.366;2.072;2023-10-08T08:31:25;20.90;;;14.63;;
56039;SDS011;43937;41.366;2.072;2023-10-08T08:33:52;26.60;;;16.08;;
56039;SDS011;43937;41.366;2.072;2023-10-08T08:36:21;22.13;;;15.18;;
56039;SDS011;43937;41.366;2.072;2023-10-08T08:38:47;23.85;;;16.75;;
56039;SDS011;43937;41.366;2.072;2023-10-08T08:41:13;23.27;;;15.60;;
56039;SDS011;43937;41.366;2.072;2023-10-08T08:43:43;28.73;;;17.63;;
56039;SDS011;43937;41.366;2.072;2023-10-08T08:46:13;25.08;;;16.92;;
56039;SDS011;43937;41.366;2.072;2023-10-08T08:48:45;24.75;;;17.55;;
56039;SDS011;43937;41.366;2.072;2023-10-08T08:51:13;25.52;;;17.73;;
56039;SDS011;43937;41.366;2.072;2023-10-08T08:53:38;27.10;;;18.95;;
56039;SDS011;43937;41.366;2.072;2023-10-08T08:56:09;26.77;;;18.38;;
56039;SDS011;43937;41.366;2.072;2023-10-08T08:58:35;28.92;;;18.08;;
56039;SDS011;43937;41.366;2.072;2023-10-08T09:01:03;25.88;;;17.95;;
56039;SDS011;43937;41.366;2.072;2023-10-08T09:03:33;26.58;;;18.00;;
56039;SDS011;43937;41.366;2.072;2023-10-08T09:05:59;33.55;;;19.48;;
56039;SDS011;43937;41.366;2.072;2023-10-08T09:08:28;24.65;;;18.90;;
56039;SDS011;43937;41.366;2.072;2023-10-08T09:10:58;26.60;;;20.35;;
56039;SDS011;43937;41.366;2.072;2023-10-08T09:13:26;29.92;;;18.80;;
56039;SDS011;43937;41.366;2.072;2023-10-08T09:16:02;28.90;;;18.98;;
56039;SDS011;43937;41.366;2.072;2023-10-08T09:18:32;23.83;;;18.08;;
56039;SDS011;43937;41.366;2.072;2023-10-08T09:21:08;30.33;;;18.27;;
56039;SDS011;43937;41.366;2.072;2023-10-08T09:23:39;26.45;;;19.52;;
56039;SDS011;43937;41.366;2.072;2023-10-08T09:26:11;30.50;;;19.63;;
56039;SDS011;43937;41.366;2.072;2023-10-08T09:28:39;28.90;;;19.45;;
56039;SDS011;43937;41.366;2.072;2023-10-08T09:31:09;26.95;;;18.25;;
56039;SDS011;43937;41.366;2.072;2023-10-08T09:33:36;24.85;;;19.83;;
56039;SDS011;43937;41.366;2.072;2023-10-08T09:37:35;23.88;;;18.30;;
56039;SDS011;43937;41.366;2.072;2023-10-08T09:40:05;30.00;;;20.35;;
56039;SDS011;43937;41.366;2.072;2023-10-08T09:42:35;27.77;;;19.50;;
56039;SDS011;43937;41.366;2.072;2023-10-08T09:45:11;27.48;;;20.33;;
56039;SDS011;43937;41.366;2.072;2023-10-08T09:47:38;30.88;;;20.73;;
56039;SDS011;43937;41.366;2.072;2023-10-08T09:50:07;25.27;;;19.30;;
56039;SDS011;43937;41.366;2.072;2023-10-08T09:52:39;27.50;;;17.58;;
56039;SDS011;43937;41.366;2.072;2023-10-08T09:55:11;32.60;;;19.58;;
56039;SDS011;43937;41.366;2.072;2023-10-08T09:57:37;23.45;;;17.80;;
56039;SDS011;43937;41.366;2.072;2023-10-08T10:00:07;31.27;;;20.02;;
56039;SDS011;43937;41.366;2.072;2023-10-08T10:02:41;28.75;;;18.20;;
56039;SDS011;43937;41.366;2.072;2023-10-08T10:05:11;27.85;;;19.23;;
56039;SDS011;43937;41.366;2.072;2023-10-08T10:07:38;22.90;;;15.25;;
56039;SDS011;43937;41.366;2.072;2023-10-08T10:10:30;21.25;;;17.10;;
56039;SDS011;43937;41.366;2.072;2023-10-08T10:13:10;22.83;;;17.08;;
56039;SDS011;43937;41.366;2.072;2023-10-08T10:17:08;21.75;;;14.80;;
56039;SDS011;43937;41.366;2.072;2023-10-08T10:19:49;18.55;;;14.57;;
56039;SDS011;43937;41.366;2.072;2023-10-08T10:22:26;23.50;;;14.85;;
56039;SDS011;43937;41.366;2.072;2023-10-08T10:24:58;20.07;;;14.60;;
56039;SDS011;43937;41.366;2.072;2023-10-08T10:27:25;22.25;;;15.88;;
56039;SDS011;43937;41.366;2.072;2023-10-08T10:29:53;21.40;;;14.65;;
56039;SDS011;43937;41.366;2.072;2023-10-08T10:32:29;17.80;;;13.32;;
56039;SDS011;43937;41.366;2.072;2023-10-08T10:34:55;22.73;;;13.07;;
56039;SDS011;43937;41.366;2.072;2023-10-08T10:37:20;18.02;;;12.63;;
56039;SDS011;43937;41.366;2.072;2023-10-08T10:39:54;22.45;;;14.52;;
56039;SDS011;43937;41.366;2.072;2023-10-08T10:42:21;18.95;;;13.32;;
56039;SDS011;43937;41.366;2.072;2023-10-08T10:46:38;22.17;;;13.15;;
56039;SDS011;43937;41.366;2.072;2023-10-08T10:49:07;18.15;;;13.00;;
56039;SDS011;43937;41.366;2.072;2023-10-08T10:51:53;17.33;;;12.23;;
56039;SDS011;43937;41.366;2.072;2023-10-08T10:54:23;18.77;;;12.30;;
56039;SDS011;43937;41.366;2.072;2023-10-08T10:56:49;19.95;;;12.80;;
56039;SDS011;43937;41.366;2.072;2023-10-08T10:59:34;19.23;;;13.55;;
56039;SDS011;43937;41.366;2.072;2023-10-08T11:02:03;21.23;;;13.45;;
56039;SDS011;43937;41.366;2.072;2023-10-08T11:04:46;20.73;;;12.50;;
56039;SDS011;43937;41.366;2.072;2023-10-08T11:07:20;17.92;;;11.70;;
56039;SDS011;43937;41.366;2.072;2023-10-08T11:09:47;20.55;;;14.80;;
56039;SDS011;43937;41.366;2.072;2023-10-08T11:12:13;22.85;;;16.15;;
56039;SDS011;43937;41.366;2.072;2023-10-08T11:14:43;23.00;;;15.27;;
56039;SDS011;43937;41.366;2.072;2023-10-08T11:17:12;19.75;;;14.30;;
56039;SDS011;43937;41.366;2.072;2023-10-08T11:19:40;18.42;;;14.00;;
56039;SDS011;43937;41.366;2.072;2023-10-08T11:22:08;18.42;;;13.13;;
56039;SDS011;43937;41.366;2.072;2023-10-08T11:24:41;26.23;;;14.50;;
56039;SDS011;43937;41.366;2.072;2023-10-08T11:27:07;21.92;;;15.55;;
56039;SDS011;43937;41.366;2.072;2023-10-08T11:29:46;23.75;;;16.83;;
56039;SDS011;43937;41.366;2.072;2023-10-08T11:32:16;24.57;;;14.67;;
56039;SDS011;43937;41.366;2.072;2023-10-08T11:34:54;26.10;;;15.13;;
56039;SDS011;43937;41.366;2.072;2023-10-08T11:37:29;19.38;;;13.73;;
56039;SDS011;43937;41.366;2.072;2023-10-08T11:39:58;23.30;;;15.52;;
56039;SDS011;43937;41.366;2.072;2023-10-08T11:42:25;25.60;;;16.20;;
56039;SDS011;43937;41.366;2.072;2023-10-08T11:44:57;26.55;;;15.10;;
56039;SDS011;43937;41.366;2.072;2023-10-08T11:47:42;23.25;;;13.70;;
56039;SDS011;43937;41.366;2.072;2023-10-08T11:50:16;19.55;;;13.80;;
56039;SDS011;43937;41.366;2.072;2023-10-08T11:52:44;24.23;;;14.35;;
56039;SDS011;43937;41.366;2.072;2023-10-08T11:55:11;29.50;;;14.02;;
56039;SDS011;43937;41.366;2.072;2023-10-08T11:57:50;18.60;;;11.63;;
56039;SDS011;43937;41.366;2.072;2023-10-08T12:00:17;21.35;;;12.55;;
56039;SDS011;43937;41.366;2.072;2023-10-08T12:02:47;18.60;;;11.60;;
56039;SDS011;43937;41.366;2.072;2023-10-08T12:05:13;15.57;;;11.30;;
56039;SDS011;43937;41.366;2.072;2023-10-08T12:07:48;13.52;;;11.90;;
56039;SDS011;43937;41.366;2.072;2023-10-08T12:10:19;22.10;;;13.68;;
56039;SDS011;43937;41.366;2.072;2023-10-08T12:12:51;20.90;;;13.23;;
56039;SDS011;43937;41.366;2.072;2023-10-08T12:15:20;19.33;;;12.70;;
56039;SDS011;43937;41.366;2.072;2023-10-08T12:17:50;21.50;;;11.52;;
56039;SDS011;43937;41.366;2.072;2023-10-08T12:20:42;16.83;;;11.25;;
56039;SDS011;43937;41.366;2.072;2023-10-08T12:23:12;15.50;;;11.48;;
56039;SDS011;43937;41.366;2.072;2023-10-08T12:25:50;16.63;;;11.65;;
56039;SDS011;43937;41.366;2.072;2023-10-08T12:28:20;18.42;;;11.88;;
56039;SDS011;43937;41.366;2.072;2023-10-08T12:30:49;15.20;;;11.60;;
56039;SDS011;43937;41.366;2.072;2023-10-08T12:33:20;17.40;;;11.20;;
56039;SDS011;43937;41.366;2.072;2023-10-08T12:35:49;17.80;;;10.60;;
56039;SDS011;43937;41.366;2.072;2023-10-08T12:38:20;22.67;;;10.35;;
56039;SDS011;43937;41.366;2.072;2023-10-08T12:40:50;18.77;;;11.68;;
56039;SDS011;43937;41.366;2.072;2023-10-08T12:43:18;17.65;;;11.38;;
56039;SDS011;43937;41.366;2.072;2023-10-08T12:45:52;15.15;;;11.02;;
56039;SDS011;43937;41.366;2.072;2023-10-08T12:48:24;14.05;;;10.20;;
56039;SDS011;43937;41.366;2.072;2023-10-08T12:50:52;14.57;;;9.40;;
56039;SDS011;43937;41.366;2.072;2023-10-08T12:53:26;23.15;;;10.88;;
56039;SDS011;43937;41.366;2.072;2023-10-08T12:55:58;18.52;;;10.52;;
56039;SDS011;43937;41.366;2.072;2023-10-08T12:58:31;13.43;;;10.10;;
56039;SDS011;43937;41.366;2.072;2023-10-08T13:01:06;11.88;;;9.68;;
56039;SDS011;43937;41.366;2.072;2023-10-08T13:03:34;15.50;;;9.52;;
56039;SDS011;43937;41.366;2.072;2023-10-08T13:06:06;15.43;;;10.77;;
56039;SDS011;43937;41.366;2.072;2023-10-08T13:08:37;17.27;;;11.97;;
56039;SDS011;43937;41.366;2.072;2023-10-08T13:11:03;16.98;;;10.02;;
56039;SDS011;43937;41.366;2.072;2023-10-08T13:13:38;15.48;;;10.18;;
56039;SDS011;43937;41.366;2.072;2023-10-08T13:16:03;18.17;;;9.50;;
56039;SDS011;43937;41.366;2.072;2023-10-08T13:18:32;18.67;;;10.25;;
56039;SDS011;43937;41.366;2.072;2023-10-08T13:20:59;21.35;;;11.35;;
56039;SDS011;43937;41.366;2.072;2023-10-08T13:23:26;14.35;;;9.93;;
56039;SDS011;43937;41.366;2.072;2023-10-08T13:25:51;24.52;;;9.88;;
56039;SDS011;43937;41.366;2.072;2023-10-08T13:28:23;19.00;;;10.73;;
56039;SDS011;43937;41.366;2.072;2023-10-08T13:30:51;20.33;;;11.35;;
56039;SDS011;43937;41.366;2.072;2023-10-08T13:33:20;17.73;;;11.02;;
56039;SDS011;43937;41.366;2.072;2023-10-08T13:35:47;16.10;;;9.50;;
56039;SDS011;43937;41.366;2.072;2023-10-08T13:38:18;14.68;;;9.93;;
56039;SDS011;43937;41.366;2.072;2023-10-08T13:40:48;12.02;;;9.48;;
56039;SDS011;43937;41.366;2.072;2023-10-08T13:43:29;15.70;;;9.98;;
56039;SDS011;43937;41.366;2.072;2023-10-08T13:46:02;14.57;;;10.27;;
56039;SDS011;43937;41.366;2.072;2023-10-08T13:48:35;15.38;;;8.70;;
56039;SDS011;43937;41.366;2.072;2023-10-08T13:51:02;15.75;;;9.75;;
56039;SDS011;43937;41.366;2.072;2023-10-08T13:53:32;13.00;;;9.65;;
56039;SDS011;43937;41.366;2.072;2023-10-08T13:55:59;13.00;;;9.32;;
56039;SDS011;43937;41.366;2.072;2023-10-08T13:58:32;13.30;;;10.00;;
56039;SDS011;43937;41.366;2.072;2023-10-08T14:01:05;17.20;;;10.50;;
56039;SDS011;43937;41.366;2.072;2023-10-08T14:03:43;20.73;;;12.05;;
56039;SDS011;43937;41.366;2.072;2023-10-08T14:06:10;18.98;;;11.00;;
56039;SDS011;43937;41.366;2.072;2023-10-08T14:08:35;13.88;;;10.55;;
56039;SDS011;43937;41.366;2.072;2023-10-08T14:11:01;18.98;;;10.48;;
56039;SDS011;43937;41.366;2.072;2023-10-08T14:13:30;11.88;;;8.90;;
56039;SDS011;43937;41.366;2.072;2023-10-08T14:16:00;17.42;;;9.57;;
56039;SDS011;43937;41.366;2.072;2023-10-08T14:18:33;15.32;;;9.18;;
56039;SDS011;43937;41.366;2.072;2023-10-08T14:21:06;15.95;;;9.80;;
56039;SDS011;43937;41.366;2.072;2023-10-08T14:23:35;15.82;;;9.13;;
56039;SDS011;43937;41.366;2.072;2023-10-08T14:26:05;14.18;;;9.30;;
56039;SDS011;43937;41.366;2.072;2023-10-08T14:28:32;15.70;;;8.23;;
56039;SDS011;43937;41.366;2.072;2023-10-08T14:31:18;15.77;;;8.80;;
56039;SDS011;43937;41.366;2.072;2023-10-08T14:33:47;14.93;;;8.02;;
56039;SDS011;43937;41.366;2.072;2023-10-08T14:39:31;11.68;;;8.23;;
56039;SDS011;43937;41.366;2.072;2023-10-08T14:42:19;12.07;;;8.23;;
56039;SDS011;43937;41.366;2.072;2023-10-08T14:45:04;13.05;;;8.30;;
56039;SDS011;43937;41.366;2.072;2023-10-08T14:47:38;12.27;;;8.82;;
56039;SDS011;43937;41.366;2.072;2023-10-08T14:50:04;14.32;;;7.38;;
56039;SDS011;43937;41.366;2.072;2023-10-08T14:52:31;33.00;;;18.50;;
56039;SDS011;43937;41.366;2.072;2023-10-08T14:55:00;19.40;;;11.82;;
56039;SDS011;43937;41.366;2.072;2023-10-08T14:57:25;31.52;;;19.67;;
56039;SDS011;43937;41.366;2.072;2023-10-08T14:59:51;50.47;;;28.95;;
56039;SDS011;43937;41.366;2.072;2023-10-08T15:02:17;27.63;;;16.63;;
56039;SDS011;43937;41.366;2.072;2023-10-08T15:04:43;19.23;;;11.68;;
56039;SDS011;43937;41.366;2.072;2023-10-08T15:07:09;10.18;;;7.13;;
56039;SDS011;43937;41.366;2.072;2023-10-08T15:09:42;14.82;;;9.02;;
56039;SDS011;43937;41.366;2.072;2023-10-08T15:12:09;17.38;;;10.15;;
56039;SDS011;43937;41.366;2.072;2023-10-08T15:14:35;23.70;;;13.27;;